Hendrix, Mississippi
Current Conditions -  °F | °C
As of 6:53 PM on Friday 28 Nov 2014 (Local Time) from KGWO Reporting Station
Clear Clear  
Wind Chill: 42°   Ceiling: Unl
Heat Index: 46°   Visibility: 10mi
Dew Point: 27°   Wind: 7mph
Humidity: 47%   Direction: 160°SSE
Pressure: 30.2"   Gusts: NA
Location:  33.3807°N, 89.5554°W
Report Text: KGWO 290053Z AUTO 16006KT 10SM CLR 08/M03 A3020 RMK AO2 SLP228 T00781028 TSNO
Loading
Personal Weather Stations






























Interactive Weather Map New forecast layout! Learn more

10-Day Weather Forecast

Advertisements
Track Severe Weather on mobile